Time;durP1;ratioP1;P1;durP2;ratioP2;P2;SDS_P1;SDS_P2;PMS_P1;PMS_P2;Temp;Humidity;BMP_temperature;BMP_pressure;BME280_temperature;BME280_humidity;BME280_pressure;Samples;Min_cycle;Max_cycle;Signal;HPM_P1;HPM_P2
2023/10/25 00:02:12;;;;;;;11.60;4.93;;;;;;;20.96;59.57;98436.16;6186892;23;20170;-89
2023/10/25 00:04:37;;;;;;;8.97;4.37;;;;;;;20.78;60.50;98445.09;6187068;23;20158;-90
2023/10/25 00:07:03;;;;;;;12.83;4.10;;;;;;;20.80;60.50;98455.59;6186870;23;20230;-90
2023/10/25 00:09:28;;;;;;;14.30;4.57;;;;;;;20.89;60.04;98459.94;6187074;23;20202;-91
2023/10/25 00:11:54;;;;;;;11.93;4.93;;;;;;;20.95;59.60;98461.97;6160697;23;20252;-91
2023/10/25 00:14:20;;;;;;;11.73;5.30;;;;;;;21.05;59.26;98464.50;6161138;23;20601;-91
2023/10/25 00:16:45;;;;;;;14.17;4.43;;;;;;;21.10;58.79;98463.03;6161042;23;20645;-92
2023/10/25 00:19:10;;;;;;;11.97;4.77;;;;;;;21.11;58.44;98454.06;6160961;23;20578;-91
2023/10/25 00:21:36;;;;;;;10.07;3.97;;;;;;;21.06;58.57;98451.06;6186830;23;20245;-90
2023/10/25 00:24:02;;;;;;;15.87;4.50;;;;;;;21.00;58.54;98445.50;6187103;23;20558;-90
2023/10/25 00:26:28;;;;;;;17.33;5.23;;;;;;;21.00;58.83;98441.00;6186926;23;20158;-90
2023/10/25 00:28:53;;;;;;;14.03;3.93;;;;;;;21.06;58.68;98444.84;6186810;23;20174;-92
2023/10/25 00:31:19;;;;;;;13.33;5.60;;;;;;;21.09;58.29;98447.22;6160978;23;20586;-91
2023/10/25 00:33:44;;;;;;;9.20;4.30;;;;;;;21.09;57.71;98433.91;6161312;23;20154;-91
2023/10/25 00:36:11;;;;;;;8.47;3.37;;;;;;;21.04;58.12;98430.84;6161078;23;20155;-90
2023/10/25 00:38:36;;;;;;;12.87;5.43;;;;;;;21.05;58.25;98435.19;6160955;23;20147;-91
2023/10/25 00:41:02;;;;;;;9.93;4.40;;;;;;;21.00;58.52;98433.00;6186753;23;20159;-90
2023/10/25 00:43:27;;;;;;;9.33;4.20;;;;;;;21.03;58.11;98437.16;6160726;23;20161;-91
2023/10/25 00:45:59;;;;;;;14.23;3.73;;;;;;;21.03;57.96;98437.16;6160807;23;20233;-90
2023/10/25 00:48:24;;;;;;;10.13;4.43;;;;;;;20.97;58.11;98429.81;6160802;23;20182;-91
2023/10/25 00:50:51;;;;;;;12.20;4.40;;;;;;;20.97;58.40;98432.50;6160812;23;20166;-91
2023/10/25 00:53:17;;;;;;;14.60;4.70;;;;;;;20.98;58.17;98421.69;6186466;23;20172;-91
2023/10/25 00:55:43;;;;;;;11.77;4.43;;;;;;;20.94;58.13;98415.00;6186719;23;20562;-90
2023/10/25 00:58:08;;;;;;;13.07;4.30;;;;;;;20.93;58.01;98421.34;6160495;23;20181;-91
2023/10/25 01:00:34;;;;;;;12.33;4.70;;;;;;;20.95;57.45;98413.19;6186834;23;20151;-91
2023/10/25 01:03:05;;;;;;;21.17;5.27;;;;;;;20.92;57.44;98426.81;6160703;23;20170;-91
2023/10/25 01:05:31;;;;;;;13.23;4.33;;;;;;;21.00;56.82;98430.34;6186600;23;20139;-90
2023/10/25 01:07:56;;;;;;;8.07;4.60;;;;;;;21.03;56.49;98440.69;6160681;23;20181;-91
2023/10/25 01:10:22;;;;;;;11.07;4.30;;;;;;;20.97;56.58;98436.00;6186649;23;20178;-91
2023/10/25 01:12:47;;;;;;;11.70;4.10;;;;;;;20.89;56.86;98430.63;6160377;23;20154;-91
2023/10/25 01:15:13;;;;;;;13.13;4.30;;;;;;;20.89;56.59;98437.78;6160589;23;20158;-90
2023/10/25 01:17:39;;;;;;;11.67;4.60;;;;;;;20.91;56.46;98441.97;6160618;23;20154;-91
2023/10/25 01:20:05;;;;;;;10.00;4.63;;;;;;;20.81;56.61;98443.94;6186533;23;20147;-90
2023/10/25 01:22:30;;;;;;;11.43;4.57;;;;;;;20.79;56.71;98443.28;6186224;23;20616;-91
2023/10/25 01:24:56;;;;;;;9.20;4.07;;;;;;;20.68;57.11;98440.88;6160288;23;20150;-90
2023/10/25 01:27:21;;;;;;;12.30;3.93;;;;;;;20.55;57.54;98437.84;6187023;23;20218;-90
2023/10/25 01:29:47;;;;;;;13.30;5.17;;;;;;;20.47;57.75;98437.81;6186223;23;20175;-91
2023/10/25 01:32:12;;;;;;;6.93;3.70;;;;;;;20.41;57.86;98443.78;6160088;23;20165;-91
2023/10/25 01:34:38;;;;;;;8.37;4.00;;;;;;;20.37;57.97;98442.41;6160339;23;20232;-91
2023/10/25 01:37:03;;;;;;;8.83;4.10;;;;;;;20.48;57.77;98440.31;6185849;23;20154;-91
2023/10/25 01:39:29;;;;;;;20.40;4.47;;;;;;;20.38;57.96;98444.09;6160249;23;20621;-90
2023/10/25 01:41:54;;;;;;;13.97;3.97;;;;;;;20.28;58.43;98449.56;6186524;23;20168;-91
2023/10/25 01:44:19;;;;;;;13.47;4.73;;;;;;;20.22;58.84;98450.97;6161220;23;20189;-88
2023/10/25 01:46:45;;;;;;;13.70;4.27;;;;;;;20.19;58.92;98445.97;6185928;23;20490;-89
2023/10/25 01:49:10;;;;;;;15.83;3.83;;;;;;;20.26;58.71;98445.38;6159798;23;20688;-88
2023/10/25 01:51:36;;;;;;;12.03;4.07;;;;;;;20.19;58.74;98445.97;6186144;23;20211;-88
2023/10/25 01:54:01;;;;;;;13.73;4.37;;;;;;;20.11;58.98;98437.09;6185620;23;20154;-89
2023/10/25 01:56:27;;;;;;;19.33;4.10;;;;;;;20.11;58.89;98443.25;6185839;23;20177;-88
2023/10/25 01:58:52;;;;;;;14.20;4.57;;;;;;;20.10;59.03;98449.56;6185625;23;20570;-88
2023/10/25 02:01:17;;;;;;;9.90;4.10;;;;;;;20.05;58.47;98437.72;6185562;23;20476;-88
2023/10/25 02:03:43;;;;;;;17.03;5.10;;;;;;;19.96;58.92;98439.50;6185478;23;20542;-88
2023/10/25 02:06:21;;;;;;;15.77;4.83;;;;;;;19.86;58.89;98425.50;6172596;23;20202;-86
2023/10/25 02:08:47;;;;;;;17.73;4.93;;;;;;;19.84;58.69;98430.09;6156634;23;20167;-88
2023/10/25 02:11:12;;;;;;;7.50;3.63;;;;;;;19.77;58.89;98426.41;6156273;23;20157;-88
2023/10/25 02:13:38;;;;;;;16.43;4.50;;;;;;;19.72;59.05;98420.72;6155901;23;20482;-88
2023/10/25 02:16:15;;;;;;;12.17;4.27;;;;;;;19.70;58.92;98417.38;6156216;23;20152;-87
2023/10/25 02:18:40;;;;;;;8.70;3.73;;;;;;;19.64;58.83;98415.34;6130175;23;20161;-88
2023/10/25 02:21:06;;;;;;;10.83;3.57;;;;;;;19.53;58.94;98407.59;6155829;23;20171;-88
2023/10/25 02:23:31;;;;;;;11.70;5.57;;;;;;;19.42;58.80;98402.53;6130081;23;20159;-88
2023/10/25 02:25:57;;;;;;;9.27;4.60;;;;;;;19.36;58.79;98406.63;6155840;23;20205;-88
2023/10/25 02:28:22;;;;;;;11.03;4.80;;;;;;;19.31;58.78;98406.22;6156018;23;20185;-88
2023/10/25 02:30:48;;;;;;;10.37;4.53;;;;;;;19.21;58.57;98407.31;6130055;23;20225;-88
2023/10/25 02:33:13;;;;;;;13.83;4.47;;;;;;;19.16;58.57;98401.59;6156151;23;20570;-88
2023/10/25 02:35:39;;;;;;;12.57;4.83;;;;;;;19.19;58.34;98395.97;6155778;23;20147;-88
2023/10/25 02:38:05;;;;;;;16.10;4.50;;;;;;;19.28;57.88;98408.38;6155761;23;20205;-88
2023/10/25 02:40:30;;;;;;;11.97;4.57;;;;;;;19.31;57.62;98418.69;6155434;23;20173;-88
2023/10/25 02:42:56;;;;;;;13.87;4.20;;;;;;;19.12;57.94;98417.03;6155711;23;20225;-88
2023/10/25 02:45:21;;;;;;;11.50;4.20;;;;;;;18.98;58.47;98405.09;6156273;23;20162;-87
2023/10/25 02:47:47;;;;;;;9.50;4.03;;;;;;;18.98;58.36;98410.41;6129921;23;20151;-88
2023/10/25 02:50:12;;;;;;;11.07;4.77;;;;;;;18.99;58.59;98406.78;6156204;23;20216;-88
2023/10/25 02:52:38;;;;;;;16.23;4.37;;;;;;;18.93;58.85;98396.75;6155656;23;20221;-87
2023/10/25 02:55:04;;;;;;;21.13;4.67;;;;;;;18.89;58.83;98392.72;6155694;23;20233;-87
2023/10/25 02:57:29;;;;;;;17.20;4.67;;;;;;;18.89;59.05;98389.25;6156299;23;20222;-87
2023/10/25 02:59:54;;;;;;;15.83;4.40;;;;;;;18.87;59.41;98385.88;6155523;23;20171;-87
2023/10/25 03:02:20;;;;;;;8.47;3.70;;;;;;;18.81;59.52;98392.66;6129891;23;20164;-87
2023/10/25 03:04:45;;;;;;;9.27;4.60;;;;;;;18.73;59.96;98397.88;6156227;23;20225;-87
2023/10/25 03:07:11;;;;;;;9.30;3.77;;;;;;;18.72;60.01;98405.97;6166545;23;20165;-87
2023/10/25 03:09:36;;;;;;;12.30;3.70;;;;;;;18.70;60.06;98400.81;6185412;23;20224;-87
2023/10/25 03:12:02;;;;;;;11.57;3.90;;;;;;;18.77;60.09;98399.22;6185381;23;20158;-88
2023/10/25 03:14:28;;;;;;;15.43;4.03;;;;;;;18.88;59.87;98407.00;6185761;23;20151;-88
2023/10/25 03:16:53;;;;;;;15.57;4.90;;;;;;;18.93;59.56;98418.00;6186052;23;20200;-88
2023/10/25 03:19:19;;;;;;;17.93;4.53;;;;;;;18.98;59.40;98417.53;6185194;23;20601;-88
2023/10/25 03:21:44;;;;;;;13.17;4.53;;;;;;;19.06;58.79;98420.28;6184209;23;20229;-88
2023/10/25 03:24:10;;;;;;;11.13;4.87;;;;;;;19.20;58.56;98424.25;6185295;23;20576;-88
2023/10/25 03:26:35;;;;;;;12.60;5.07;;;;;;;19.20;58.52;98424.25;6185914;23;20155;-88
2023/10/25 03:29:00;;;;;;;12.90;3.90;;;;;;;19.16;58.65;98429.00;6185668;23;20146;-88
2023/10/25 03:31:26;;;;;;;11.30;4.20;;;;;;;19.26;58.71;98436.91;6185947;23;20469;-88
2023/10/25 03:33:51;;;;;;;14.30;4.77;;;;;;;19.34;58.20;98443.13;6185950;23;20148;-88
2023/10/25 03:36:17;;;;;;;21.13;4.53;;;;;;;19.41;57.96;98432.75;6185272;23;20161;-88
2023/10/25 03:38:42;;;;;;;10.53;4.30;;;;;;;19.41;57.74;98432.75;6183982;23;20596;-88
2023/10/25 03:41:08;;;;;;;18.33;3.57;;;;;;;19.45;57.40;98439.44;6185551;23;20221;-88
2023/10/25 03:43:35;;;;;;;12.40;3.87;;;;;;;19.30;58.04;98441.78;6185893;23;20173;-87
2023/10/25 03:46:05;;;;;;;16.30;4.70;;;;;;;19.28;58.35;98437.59;6185225;23;20182;-87
2023/10/25 03:48:32;;;;;;;9.23;3.53;;;;;;;19.25;58.20;98438.75;6184050;23;20178;-88
2023/10/25 03:50:57;;;;;;;13.83;4.13;;;;;;;19.21;58.57;98431.22;6185183;23;20158;-88
2023/10/25 03:53:22;;;;;;;11.23;4.10;;;;;;;19.18;58.52;98420.91;6184007;23;20154;-87
2023/10/25 03:55:53;;;;;;;10.47;3.67;;;;;;;19.13;58.76;98412.56;6185447;23;20187;-88
2023/10/25 03:58:18;;;;;;;12.77;3.73;;;;;;;19.13;58.87;98413.38;6187575;23;20148;-88
2023/10/25 04:00:44;;;;;;;8.83;3.87;;;;;;;19.12;58.74;98411.72;6186983;23;20209;-88
2023/10/25 04:03:09;;;;;;;12.47;4.10;;;;;;;19.10;58.83;98403.06;6187333;23;20160;-88
2023/10/25 04:05:38;;;;;;;10.10;4.13;;;;;;;19.10;58.58;98404.88;6187297;23;20233;-88
2023/10/25 04:08:04;;;;;;;14.33;4.13;;;;;;;19.07;58.40;98416.66;6186948;23;20159;-89
2023/10/25 04:10:30;;;;;;;11.33;3.67;;;;;;;19.07;58.78;98418.47;6186930;23;20154;-88
2023/10/25 04:12:55;;;;;;;12.10;4.20;;;;;;;19.10;58.38;98423.47;6186855;23;20541;-88
2023/10/25 04:15:22;;;;;;;8.97;3.70;;;;;;;19.03;58.80;98437.34;6186873;23;20161;-89
2023/10/25 04:17:47;;;;;;;11.50;4.57;;;;;;;18.93;58.84;98435.75;6185639;23;20160;-88
2023/10/25 04:20:13;;;;;;;12.97;4.57;;;;;;;18.97;58.39;98422.00;6186698;23;20601;-88
2023/10/25 04:22:38;;;;;;;13.17;4.50;;;;;;;18.86;58.08;98419.59;6186759;23;20216;-88
2023/10/25 04:25:04;;;;;;;10.50;4.87;;;;;;;18.85;57.75;98417.06;6186788;23;20174;-87
2023/10/25 04:27:30;;;;;;;10.63;4.67;;;;;;;18.85;57.16;98425.88;6187751;23;20161;-88
2023/10/25 04:29:56;;;;;;;17.20;4.70;;;;;;;18.76;57.27;98432.06;6187090;23;20143;-88
2023/10/25 04:32:21;;;;;;;15.97;4.37;;;;;;;18.70;57.37;98427.38;6186684;23;20581;-88
2023/10/25 04:34:47;;;;;;;8.73;5.03;;;;;;;18.66;56.92;98420.66;6186665;23;20160;-88
2023/10/25 04:37:13;;;;;;;10.53;3.70;;;;;;;18.67;56.96;98413.56;6186586;23;20188;-88
2023/10/25 04:39:39;;;;;;;16.80;5.10;;;;;;;18.64;56.99;98401.41;6186597;23;20175;-88
2023/10/25 04:42:05;;;;;;;13.93;4.00;;;;;;;18.64;57.08;98409.38;6186464;23;20592;-88
2023/10/25 04:44:31;;;;;;;15.90;4.83;;;;;;;18.61;56.65;98403.53;6186539;23;20600;-88
2023/10/25 04:46:57;;;;;;;21.93;4.33;;;;;;;18.58;57.17;98396.69;6185275;23;20542;-88
2023/10/25 04:49:24;;;;;;;11.57;4.50;;;;;;;18.53;56.97;98391.00;6185348;23;20151;-88
2023/10/25 04:51:50;;;;;;;15.73;4.27;;;;;;;18.52;57.18;98392.00;6186473;23;20150;-88
2023/10/25 04:54:15;;;;;;;8.23;4.13;;;;;;;18.48;57.46;98390.59;6186486;23;20226;-88
2023/10/25 04:56:41;;;;;;;10.50;3.67;;;;;;;18.43;57.54;98398.16;6186724;23;20184;-88
2023/10/25 04:59:06;;;;;;;11.10;4.80;;;;;;;18.42;57.40;98396.50;6186265;23;20172;-88
2023/10/25 05:01:32;;;;;;;13.83;4.33;;;;;;;18.41;57.59;98393.00;6186383;23;20154;-88
2023/10/25 05:03:58;;;;;;;10.03;4.70;;;;;;;18.46;57.15;98387.25;6186332;23;20186;-88
2023/10/25 05:06:24;;;;;;;10.80;4.77;;;;;;;18.48;56.97;98403.88;6186136;23;20155;-88
2023/10/25 05:08:49;;;;;;;16.77;4.63;;;;;;;18.40;57.25;98398.44;6187048;23;20139;-88
2023/10/25 05:11:18;;;;;;;12.00;4.57;;;;;;;18.41;57.28;98381.53;6186928;23;20174;-88
2023/10/25 05:13:44;;;;;;;11.23;4.50;;;;;;;18.40;57.24;98371.91;6186252;23;20189;-88
2023/10/25 05:16:10;;;;;;;12.50;4.20;;;;;;;18.45;57.26;98359.03;6186573;23;20151;-88
2023/10/25 05:18:36;;;;;;;11.17;4.23;;;;;;;18.52;57.06;98362.81;6186410;23;20562;-88
2023/10/25 05:21:03;;;;;;;12.20;4.00;;;;;;;18.55;57.05;98370.47;6186853;23;20193;-88
2023/10/25 05:23:33;;;;;;;13.97;4.87;;;;;;;18.51;57.35;98366.44;6186576;23;20147;-88
2023/10/25 05:26:00;;;;;;;18.40;3.80;;;;;;;18.53;57.79;98369.75;6186141;23;20151;-88
2023/10/25 05:28:26;;;;;;;15.37;4.83;;;;;;;18.55;57.80;98375.78;6186035;23;20521;-88
2023/10/25 05:30:55;;;;;;;12.37;4.00;;;;;;;18.68;57.64;98381.56;6186453;23;20150;-88
2023/10/25 05:33:23;;;;;;;8.80;4.00;;;;;;;18.76;57.30;98389.59;6186077;23;20148;-88
2023/10/25 05:35:49;;;;;;;17.53;4.77;;;;;;;18.81;57.34;98407.75;6186429;23;20162;-89
2023/10/25 05:38:14;;;;;;;11.23;4.13;;;;;;;18.85;57.20;98399.31;6185826;23;20150;-89
2023/10/25 05:40:41;;;;;;;14.20;4.53;;;;;;;18.83;57.60;98401.31;6186659;23;20513;-88
2023/10/25 05:43:14;;;;;;;10.30;3.63;;;;;;;18.79;57.86;98377.81;6186000;23;20245;-88
2023/10/25 05:45:40;;;;;;;13.60;3.67;;;;;;;18.84;58.14;98383.56;6186386;23;20154;-88
2023/10/25 05:48:09;;;;;;;9.23;3.87;;;;;;;18.95;58.20;98384.16;6186291;23;20152;-89
2023/10/25 05:50:36;;;;;;;15.17;3.80;;;;;;;19.01;58.22;98380.91;6186342;23;20152;-88
2023/10/25 05:53:02;;;;;;;9.97;4.20;;;;;;;19.12;58.04;98382.50;6186208;23;20509;-88
2023/10/25 05:55:27;;;;;;;16.43;4.93;;;;;;;19.19;58.16;98391.50;6186243;23;20233;-88
2023/10/25 05:57:53;;;;;;;9.90;3.93;;;;;;;19.30;58.28;98382.47;6186250;23;20150;-88
2023/10/25 06:00:19;;;;;;;10.70;4.17;;;;;;;19.35;58.28;98381.03;6184552;23;20261;-88
2023/10/25 06:02:45;;;;;;;12.13;3.70;;;;;;;19.35;59.17;98377.53;6184622;23;20649;-88
2023/10/25 06:05:15;;;;;;;13.93;4.87;;;;;;;19.42;59.08;98376.78;6185795;23;20181;-88
2023/10/25 06:07:41;;;;;;;11.30;4.03;;;;;;;19.47;59.01;98374.50;6184455;23;20594;-88
2023/10/25 06:10:08;;;;;;;15.43;4.13;;;;;;;19.63;58.63;98383.59;6186077;23;20142;-88
2023/10/25 06:12:33;;;;;;;13.03;4.77;;;;;;;19.67;58.29;98391.09;6184481;23;20171;-87
2023/10/25 06:14:59;;;;;;;17.33;4.73;;;;;;;19.68;58.58;98381.31;6185712;23;20145;-88
2023/10/25 06:17:24;;;;;;;14.63;5.17;;;;;;;19.63;58.97;98381.75;6186294;23;20161;-88
2023/10/25 06:19:52;;;;;;;11.43;4.83;;;;;;;19.67;58.99;98391.09;6185318;23;20175;-87
2023/10/25 06:22:18;;;;;;;10.03;4.90;;;;;;;19.77;58.78;98391.84;6186304;23;20146;-88
2023/10/25 06:24:43;;;;;;;17.50;4.40;;;;;;;19.79;59.23;98394.31;6185539;23;20161;-87
2023/10/25 06:27:09;;;;;;;11.30;4.47;;;;;;;19.87;59.27;98397.88;6185911;23;20232;-88
2023/10/25 06:29:34;;;;;;;12.70;5.03;;;;;;;19.92;58.87;98398.25;6186248;23;20225;-88
2023/10/25 06:32:00;;;;;;;15.47;4.87;;;;;;;20.03;58.63;98392.66;6186234;23;20155;-88
2023/10/25 06:34:25;;;;;;;16.60;4.60;;;;;;;20.05;58.91;98392.50;6185920;23;20149;-88
2023/10/25 06:36:51;;;;;;;18.63;5.97;;;;;;;20.02;58.52;98379.53;6185577;23;20291;-88
2023/10/25 06:39:17;;;;;;;12.87;5.77;;;;;;;19.96;58.16;98378.31;6186095;23;20588;-88
2023/10/25 06:41:43;;;;;;;14.90;5.27;;;;;;;19.97;57.81;98384.47;6185336;23;20155;-88
2023/10/25 06:44:09;;;;;;;16.03;6.13;;;;;;;20.06;58.01;98400.31;6185863;23;20554;-87
2023/10/25 06:46:35;;;;;;;14.83;5.23;;;;;;;20.16;57.88;98394.88;6185514;23;20173;-88
2023/10/25 06:49:00;;;;;;;17.20;6.53;;;;;;;20.31;57.72;98382.66;6186016;23;20147;-88
2023/10/25 06:51:26;;;;;;;17.47;5.53;;;;;;;20.33;57.30;98380.69;6185476;23;20150;-88
2023/10/25 06:53:52;;;;;;;17.67;6.03;;;;;;;20.37;57.19;98378.53;6185574;23;20166;-88
2023/10/25 06:56:19;;;;;;;17.33;7.00;;;;;;;20.44;57.04;98393.69;6185741;23;20150;-88
2023/10/25 06:58:44;;;;;;;18.93;6.83;;;;;;;20.41;57.22;98393.22;6185396;23;20181;-88
2023/10/25 07:01:12;;;;;;;16.67;6.90;;;;;;;20.38;57.58;98391.69;6185379;23;20267;-88
2023/10/25 07:03:44;;;;;;;24.50;6.87;;;;;;;20.37;57.62;98394.50;6185373;23;20228;-88
2023/10/25 07:06:11;;;;;;;28.43;7.50;;;;;;;20.45;57.66;98407.84;6185402;23;20135;-88
2023/10/25 07:08:37;;;;;;;18.43;7.43;;;;;;;20.49;57.61;98415.34;6184037;23;20493;-88
2023/10/25 07:11:03;;;;;;;14.33;7.10;;;;;;;20.63;57.03;98427.22;6184199;23;20237;-88
2023/10/25 07:13:29;;;;;;;19.83;7.87;;;;;;;20.72;56.88;98426.28;6185609;23;20161;-88
2023/10/25 07:15:56;;;;;;;22.13;8.20;;;;;;;20.73;56.84;98417.28;6185308;23;20300;-88
2023/10/25 07:18:22;;;;;;;26.20;8.00;;;;;;;20.78;56.96;98426.44;6185196;23;20169;-88
2023/10/25 07:20:47;;;;;;;19.40;6.67;;;;;;;20.79;56.53;98427.28;6185366;23;20226;-88
2023/10/25 07:23:13;;;;;;;20.87;6.57;;;;;;;20.63;57.39;98430.72;6185338;23;20556;-88
2023/10/25 07:25:38;;;;;;;12.57;6.53;;;;;;;20.62;57.33;98437.03;6185347;23;20151;-88
2023/10/25 07:28:05;;;;;;;23.03;7.10;;;;;;;20.73;57.10;98431.44;6185628;23;20213;-88
2023/10/25 07:30:31;;;;;;;16.33;7.20;;;;;;;20.70;57.45;98421.09;6184100;23;20151;-88
2023/10/25 07:32:56;;;;;;;28.87;6.40;;;;;;;20.77;56.92;98418.63;6187183;23;20151;-88
2023/10/25 07:35:21;;;;;;;19.70;7.00;;;;;;;20.90;56.79;98410.16;6187196;23;20165;-88
2023/10/25 07:37:47;;;;;;;18.73;5.90;;;;;;;20.81;57.22;98396.81;6187130;23;20212;-88
2023/10/25 07:40:12;;;;;;;15.97;5.23;;;;;;;20.78;57.08;98409.63;6185841;23;20480;-88
2023/10/25 07:42:38;;;;;;;15.20;6.20;;;;;;;20.65;57.49;98409.28;6187143;23;20147;-88
2023/10/25 07:45:04;;;;;;;18.13;5.93;;;;;;;20.68;57.73;98399.13;6185930;23;20495;-88
2023/10/25 07:47:29;;;;;;;24.93;7.67;;;;;;;20.81;57.41;98396.00;6187434;23;20208;-88
2023/10/25 07:49:55;;;;;;;15.43;6.07;;;;;;;20.82;57.61;98410.97;6187415;23;20200;-88
2023/10/25 07:52:23;;;;;;;13.50;6.30;;;;;;;20.85;57.68;98413.31;6187286;23;20146;-88
2023/10/25 07:54:48;;;;;;;19.90;7.07;;;;;;;20.91;57.98;98410.00;6187770;23;20222;-88
2023/10/25 07:57:14;;;;;;;20.20;8.50;;;;;;;20.94;58.19;98409.66;6187331;23;20178;-88
2023/10/25 07:59:39;;;;;;;20.97;8.93;;;;;;;21.00;58.38;98405.53;6186866;23;20189;-88
2023/10/25 08:02:06;;;;;;;20.47;9.20;;;;;;;21.06;58.10;98416.41;6187249;23;20213;-88
2023/10/25 08:04:31;;;;;;;29.63;11.70;;;;;;;21.15;57.94;98410.06;6186803;23;20147;-88
2023/10/25 08:06:57;;;;;;;20.07;10.30;;;;;;;21.18;58.15;98412.41;6187250;23;20169;-88
2023/10/25 08:09:22;;;;;;;19.63;9.80;;;;;;;21.26;58.34;98404.44;6185728;23;20619;-88
2023/10/25 08:11:48;;;;;;;29.13;11.27;;;;;;;21.33;57.78;98416.09;6186868;23;20292;-88
2023/10/25 08:14:13;;;;;;;22.73;11.43;;;;;;;21.37;57.83;98413.94;6185938;23;20154;-88
2023/10/25 08:16:39;;;;;;;31.70;12.20;;;;;;;21.40;57.83;98416.28;6187461;23;20205;-88
2023/10/25 08:19:11;;;;;;;26.00;12.03;;;;;;;21.48;57.32;98426.94;6186687;23;20181;-88
2023/10/25 08:21:37;;;;;;;33.70;11.57;;;;;;;21.54;57.23;98422.78;6186783;23;20147;-88
2023/10/25 08:24:07;;;;;;;20.97;10.50;;;;;;;21.55;57.78;98409.28;6187118;23;20212;-88
2023/10/25 08:26:39;;;;;;;27.07;11.70;;;;;;;21.61;57.61;98413.09;6185546;23;20150;-88
2023/10/25 08:29:08;;;;;;;25.27;10.57;;;;;;;21.61;57.26;98392.59;6187359;23;20147;-88
2023/10/25 08:31:34;;;;;;;21.93;10.87;;;;;;;21.66;57.69;98389.44;6186644;23;20639;-88
2023/10/25 08:34:00;;;;;;;33.20;12.17;;;;;;;21.72;56.91;98383.44;6186982;23;20146;-88
2023/10/25 08:36:28;;;;;;;24.60;10.03;;;;;;;21.82;56.95;98397.41;6186669;23;20146;-88
2023/10/25 08:38:55;;;;;;;22.37;9.80;;;;;;;21.89;56.25;98399.25;6186879;23;20170;-88
2023/10/25 08:41:24;;;;;;;26.30;11.17;;;;;;;21.97;55.71;98403.75;6185333;23;20161;-88
2023/10/25 08:43:50;;;;;;;21.57;10.67;;;;;;;21.94;55.12;98404.91;6186599;23;20213;-88
2023/10/25 08:46:18;;;;;;;24.60;10.73;;;;;;;21.99;55.40;98393.72;6185711;23;20566;-88
2023/10/25 08:48:44;;;;;;;24.20;11.43;;;;;;;21.96;55.72;98381.56;6182987;23;20155;-88
2023/10/25 08:51:13;;;;;;;26.23;12.70;;;;;;;22.00;56.23;98388.25;6182797;23;20574;-88
2023/10/25 08:53:42;;;;;;;23.87;10.73;;;;;;;22.04;55.92;98400.22;6184328;23;20162;-89
2023/10/25 08:56:07;;;;;;;27.80;11.73;;;;;;;22.09;56.03;98404.25;6182732;23;20154;-88
2023/10/25 08:58:33;;;;;;;23.50;11.80;;;;;;;22.02;55.83;98391.56;6182614;23;20206;-89
2023/10/25 09:01:02;;;;;;;33.33;13.37;;;;;;;21.99;55.93;98397.25;6183019;23;20154;-89
2023/10/25 09:03:33;;;;;;;34.63;13.23;;;;;;;21.95;55.72;98397.75;6185315;23;20209;-89
2023/10/25 09:06:00;;;;;;;33.37;13.87;;;;;;;22.06;55.48;98386.72;6186794;23;20443;-89
2023/10/25 09:08:26;;;;;;;37.77;14.47;;;;;;;22.14;55.23;98383.19;6187169;23;20174;-88
2023/10/25 09:11:02;;;;;;;25.77;12.27;;;;;;;22.18;55.02;98379.16;6185021;23;20189;-89
2023/10/25 09:13:36;;;;;;;37.00;13.43;;;;;;;22.22;55.04;98381.31;6185093;23;20154;-88
2023/10/25 09:16:08;;;;;;;39.37;12.60;;;;;;;22.33;54.40;98382.78;6187335;23;20138;-89
2023/10/25 09:18:34;;;;;;;30.43;12.87;;;;;;;22.38;54.48;98375.91;6186142;23;20277;-89
2023/10/25 09:21:06;;;;;;;31.83;12.43;;;;;;;22.45;54.58;98376.91;6185078;23;20154;-89
2023/10/25 09:23:51;;;;;;;;;;;;;;;;;;;;;
2023/10/25 09:26:20;;;;;;;31.33;13.13;;;;;;;22.46;54.41;98372.38;6187186;23;20222;-89
2023/10/25 09:28:51;;;;;;;31.07;12.13;;;;;;;22.54;54.19;98365.16;6186130;23;20157;-89
2023/10/25 09:31:26;;;;;;;37.47;15.23;;;;;;;22.54;53.56;98369.66;6186455;23;20139;-89
2023/10/25 09:33:53;;;;;;;33.23;13.33;;;;;;;22.59;54.15;98368.13;6186508;23;20138;-89
2023/10/25 09:36:20;;;;;;;39.57;15.63;;;;;;;22.72;54.05;98377.47;6186105;23;20146;-89
2023/10/25 09:38:46;;;;;;;46.67;16.33;;;;;;;22.89;54.08;98373.69;6185971;23;20285;-89
2023/10/25 09:41:17;;;;;;;50.83;18.47;;;;;;;22.99;53.51;98369.78;6186038;23;20147;-89
2023/10/25 09:43:48;;;;;;;23.03;11.40;;;;;;;23.17;52.98;98380.16;6185181;23;20177;-89
2023/10/25 09:46:16;;;;;;;21.30;9.40;;;;;;;23.33;51.72;98358.66;6186374;23;20138;-89
2023/10/25 09:48:53;;;;;;;24.67;9.63;;;;;;;23.42;51.10;98349.59;6184783;23;20213;-89
2023/10/25 09:51:30;;;;;;;19.20;9.43;;;;;;;23.48;51.43;98359.56;6184863;23;20238;-89
2023/10/25 09:54:22;;;;;;;19.23;9.13;;;;;;;23.64;50.24;98354.06;6184343;23;20146;-89
2023/10/25 09:56:50;;;;;;;22.20;8.57;;;;;;;23.79;49.67;98351.41;6186252;23;20139;-89
2023/10/25 09:59:20;;;;;;;16.57;7.37;;;;;;;23.80;49.34;98343.19;6184905;23;20175;-89
2023/10/25 10:01:56;;;;;;;22.77;9.10;;;;;;;23.81;48.80;98334.16;6184553;23;20250;-89
2023/10/25 10:04:41;;;;;;;22.17;8.13;;;;;;;23.94;50.08;98332.69;6184595;23;20566;-89
2023/10/25 10:07:31;;;;;;;19.90;8.53;;;;;;;24.10;49.19;98327.19;6185584;23;20538;-89
2023/10/25 10:10:11;;;;;;;20.27;7.43;;;;;;;24.28;48.07;98309.72;6185241;23;20548;-89
2023/10/25 10:12:42;;;;;;;17.53;7.77;;;;;;;24.50;47.84;98315.13;6184561;23;20200;-89
2023/10/25 10:15:12;;;;;;;16.07;7.17;;;;;;;24.59;46.67;98312.13;6185958;23;20162;-89
2023/10/25 10:17:43;;;;;;;17.50;7.23;;;;;;;24.70;47.17;98313.50;6186449;23;20155;-90
2023/10/25 10:23:38;;;;;;;16.33;6.83;;;;;;;24.74;47.63;98293.31;6179931;23;20154;-89
2023/10/25 10:29:33;;;;;;;17.67;6.50;;;;;;;25.05;46.58;98292.00;6168334;23;20157;-90
2023/10/25 10:32:09;;;;;;;15.90;5.80;;;;;;;25.20;45.87;98296.47;6186048;23;20153;-89
2023/10/25 10:35:14;;;;;;;;;;;;;;;;;;;;;
2023/10/25 10:38:14;;;;;;;11.47;5.67;;;;;;;25.26;45.14;98279.63;6185802;23;20221;-90
2023/10/25 10:41:03;;;;;;;;;;;;;;;;;;;;;
2023/10/25 10:44:41;;;;;;;;;;;;;;;;;;;;;
2023/10/25 10:51:03;;;;;;;;;;;;;;;;;;;;;
2023/10/25 10:57:16;;;;;;;;;;;;;;;;;;;;;
2023/10/25 11:00:44;;;;;;;;;;;;;;;;;;;;;
2023/10/25 11:07:12;;;;;;;;;;;;;;;;;;;;;
2023/10/25 11:46:51;;;;;;;;;;;;;;;;;;;;;
2023/10/25 13:13:56;;;;;;;10.35;4.43;;;;;;;29.87;35.97;98155.63;6224040;23;20152;-91
2023/10/25 13:16:22;;;;;;;7.53;4.03;;;;;;;29.55;36.29;98152.22;6220801;23;20162;-90
2023/10/25 14:17:11;;;;;;;;;;;;;;;;;;;;;
2023/10/25 14:48:24;;;;;;;14.50;4.68;;;;;;;28.78;38.78;98096.09;5766100;24;20183;-90
2023/10/25 14:51:25;;;;;;;;;;;;;;;;;;;;;
2023/10/25 14:54:46;;;;;;;;;;;;;;;;;;;;;
2023/10/25 15:01:16;;;;;;;;;;;;;;;;;;;;;
2023/10/25 15:03:45;;;;;;;14.98;4.20;;;;;;;28.07;40.35;98096.41;6080144;23;20257;-90
2023/10/25 15:07:04;;;;;;;102.35;40.22;;;;;;;27.90;40.68;98103.31;6190820;23;20233;-90
2023/10/25 15:09:36;;;;;;;78.38;28.45;;;;;;;27.78;40.86;98099.63;6200595;23;20153;-90
2023/10/25 15:12:12;;;;;;;24.65;7.97;;;;;;;27.65;41.45;98095.13;6190095;23;20158;-90
2023/10/25 15:14:58;;;;;;;31.25;7.95;;;;;;;27.53;41.55;98085.25;6216882;23;20213;-90
2023/10/25 15:17:23;;;;;;;14.73;6.18;;;;;;;27.37;42.14;98081.16;6216878;23;20149;-90
2023/10/25 15:19:49;;;;;;;17.45;5.18;;;;;;;27.27;42.15;98087.00;6216058;23;20189;-90
2023/10/25 15:22:17;;;;;;;14.68;4.88;;;;;;;27.24;42.43;98091.94;6190156;23;20470;-90
2023/10/25 15:24:49;;;;;;;21.05;6.40;;;;;;;27.19;42.80;98089.91;6216152;23;20565;-90
2023/10/25 15:27:20;;;;;;;18.13;6.28;;;;;;;27.16;42.86;98084.94;6190058;23;20483;-90
2023/10/25 15:30:39;;;;;;;;;;;;;;;;;;;;;
2023/10/25 15:33:51;;;;;;;15.10;5.88;;;;;;;27.29;43.00;98074.13;6207706;23;20225;-90
2023/10/25 15:36:32;;;;;;;;;;;;;;;;;;;;;
2023/10/25 15:39:16;;;;;;;18.08;5.90;;;;;;;27.38;43.10;98067.47;6215923;23;20211;-90
2023/10/25 15:41:42;;;;;;;15.52;6.00;;;;;;;27.18;43.44;98076.66;6217041;23;20200;-89
2023/10/25 15:44:49;;;;;;;22.10;6.35;;;;;;;27.22;43.50;98078.72;6190180;23;20474;-91
2023/10/25 15:48:06;;;;;;;;;;;;;;;;;;;;;